Time;durP1;ratioP1;P1;durP2;ratioP2;P2;SDS_P1;SDS_P2;PMS_P1;PMS_P2;Temp;Humidity;BMP_temperature;BMP_pressure;BME280_temperature;BME280_humidity;BME280_pressure;Samples;Min_cycle;Max_cycle;Signal;HPM_P1;HPM_P2
2023/12/08 00:01:06;;;;;;;12.47;7.33;;;;;;;-5.13;100.00;97995.22;6307925;28;20203;-47
2023/12/08 00:04:08;;;;;;;12.63;7.87;;;;;;;-5.00;100.00;97997.56;6302216;28;20228;-51
2023/12/08 00:07:10;;;;;;;9.67;7.03;;;;;;;-4.99;100.00;98001.78;6300676;28;20193;-49
2023/12/08 00:10:13;;;;;;;10.93;7.70;;;;;;;-5.33;100.00;97963.22;6297602;28;20576;-48
2023/12/08 00:13:15;;;;;;;12.13;7.13;;;;;;;-5.21;100.00;97995.09;6301660;28;20210;-49
2023/12/08 00:16:17;;;;;;;11.53;7.67;;;;;;;-5.30;100.00;97998.47;6303128;28;20216;-48
2023/12/08 00:19:19;;;;;;;10.90;7.30;;;;;;;-5.23;100.00;97991.78;6301707;28;20202;-47
2023/12/08 00:22:21;;;;;;;12.73;8.20;;;;;;;-5.29;100.00;97993.16;6304494;28;20197;-48
2023/12/08 00:25:23;;;;;;;11.67;7.23;;;;;;;-5.37;100.00;97986.97;6305340;28;20661;-48
2023/12/08 00:28:25;;;;;;;12.80;8.10;;;;;;;-5.42;100.00;97991.75;6306469;28;20234;-48
2023/12/08 00:31:27;;;;;;;12.50;8.03;;;;;;;-5.31;100.00;97989.06;6290923;28;20233;-46
2023/12/08 00:34:29;;;;;;;15.40;8.77;;;;;;;-5.11;100.00;98001.13;6284946;28;20209;-48
2023/12/08 00:37:32;;;;;;;11.27;7.53;;;;;;;-5.10;100.00;97994.13;6295297;28;20721;-46
2023/12/08 00:40:34;;;;;;;14.47;7.60;;;;;;;-5.56;100.00;97954.84;6292865;28;20206;-48
2023/12/08 00:43:36;;;;;;;11.63;7.33;;;;;;;-5.45;100.00;97985.06;6295821;28;20198;-50
2023/12/08 00:46:38;;;;;;;14.13;8.40;;;;;;;-5.33;100.00;97985.75;6299120;28;20194;-49
2023/12/08 00:49:40;;;;;;;14.30;8.17;;;;;;;-5.33;100.00;97980.56;6299455;28;20578;-46
2023/12/08 00:52:44;;;;;;;13.07;7.87;;;;;;;-5.47;100.00;97985.22;6300844;28;20268;-47
2023/12/08 00:55:46;;;;;;;12.40;8.13;;;;;;;-5.40;100.00;97979.47;6304338;28;20189;-47
2023/12/08 00:58:48;;;;;;;14.20;8.03;;;;;;;-5.28;100.00;97980.97;6305005;28;20234;-48
2023/12/08 01:01:50;;;;;;;12.33;8.50;;;;;;;-5.39;100.00;97983.72;6299609;28;20684;-47
2023/12/08 01:04:53;;;;;;;12.93;7.67;;;;;;;-5.56;100.00;97987.78;6300353;28;20717;-48
2023/12/08 01:07:55;;;;;;;13.87;7.63;;;;;;;-5.54;100.00;97989.28;6298240;28;20284;-47
2023/12/08 01:10:57;;;;;;;12.13;7.47;;;;;;;-5.43;100.00;97988.34;6297514;28;20279;-49
2023/12/08 01:13:59;;;;;;;11.93;7.67;;;;;;;-5.43;100.00;97990.13;6301866;28;20567;-48
2023/12/08 01:17:01;;;;;;;12.80;7.90;;;;;;;-5.54;100.00;97986.69;6302476;28;20202;-51
2023/12/08 01:20:05;;;;;;;12.17;7.67;;;;;;;-5.42;100.00;97973.56;6293779;28;20214;-49
2023/12/08 01:23:07;;;;;;;12.07;7.93;;;;;;;-5.42;100.00;97984.78;6291331;28;20394;-48
2023/12/08 01:26:09;;;;;;;12.20;7.53;;;;;;;-5.48;100.00;97970.56;6299224;28;20199;-45
2023/12/08 01:29:11;;;;;;;12.57;7.93;;;;;;;-5.52;100.00;97968.38;6299526;28;20187;-45
2023/12/08 01:32:14;;;;;;;13.43;7.83;;;;;;;-5.61;100.00;97976.97;6300606;28;20238;-51
2023/12/08 01:35:16;;;;;;;15.03;7.40;;;;;;;-5.62;100.00;97973.53;6298256;28;20191;-45
2023/12/08 01:38:18;;;;;;;12.30;8.00;;;;;;;-5.48;100.00;97956.78;6299607;28;20186;-49
2023/12/08 01:41:21;;;;;;;12.53;7.90;;;;;;;-5.50;100.00;97951.72;6301519;28;20202;-45
2023/12/08 01:44:23;;;;;;;11.47;7.53;;;;;;;-5.68;100.00;97945.53;6309009;28;20704;-46
2023/12/08 01:47:25;;;;;;;12.50;7.37;;;;;;;-5.71;100.00;97946.63;6309769;28;20295;-47
2023/12/08 01:50:28;;;;;;;15.47;7.87;;;;;;;-5.52;100.00;97929.44;6313483;28;20189;-47
2023/12/08 01:53:31;;;;;;;14.10;7.93;;;;;;;-5.66;100.00;97916.84;6314419;28;20284;-45
2023/12/08 01:56:33;;;;;;;10.90;7.37;;;;;;;-5.82;100.00;97912.19;6309397;28;20281;-48
2023/12/08 01:59:35;;;;;;;11.93;7.53;;;;;;;-5.73;100.00;97919.97;6303233;28;20294;-48
2023/12/08 02:02:37;;;;;;;13.20;7.77;;;;;;;-6.05;100.00;97885.69;6306969;28;20202;-48
2023/12/08 02:05:47;;;;;;;11.93;8.00;;;;;;;-5.74;100.00;97915.75;6306209;28;20198;-45
2023/12/08 02:08:49;;;;;;;12.10;7.77;;;;;;;-5.74;100.00;97876.84;6302917;28;20544;-49
2023/12/08 02:11:52;;;;;;;12.63;7.93;;;;;;;-5.71;100.00;97899.94;6302108;28;20202;-50
2023/12/08 02:14:54;;;;;;;14.57;8.50;;;;;;;-5.80;100.00;97892.94;6305292;28;20689;-44
2023/12/08 02:17:57;;;;;;;10.97;7.93;;;;;;;-5.86;100.00;97893.50;6305495;28;20191;-46
2023/12/08 02:21:02;;;;;;;12.30;7.70;;;;;;;-5.93;100.00;97886.38;6307660;28;20300;-49
2023/12/08 02:24:05;;;;;;;14.80;8.13;;;;;;;-5.92;100.00;97883.66;6306779;28;20280;-46
2023/12/08 02:27:10;;;;;;;12.77;8.57;;;;;;;-5.80;100.00;97856.63;6310329;28;20998;-45
2023/12/08 02:30:13;;;;;;;12.57;7.90;;;;;;;-5.81;100.00;97873.16;6304187;28;20571;-50
2023/12/08 02:33:21;;;;;;;12.53;7.43;;;;;;;-5.89;100.00;97867.00;6300008;28;20281;-49
2023/12/08 02:36:25;;;;;;;12.70;7.97;;;;;;;-5.93;100.00;97856.09;6302211;28;20207;-46
2023/12/08 02:39:29;;;;;;;14.00;7.73;;;;;;;-5.97;100.00;97852.09;6306562;28;20258;-46
2023/12/08 02:42:31;;;;;;;12.57;7.87;;;;;;;-5.91;100.00;97855.94;6299317;28;20283;-46
2023/12/08 02:45:33;;;;;;;12.57;7.53;;;;;;;-5.86;100.00;97851.13;6300059;28;20285;-50
2023/12/08 02:48:35;;;;;;;14.60;7.83;;;;;;;-5.92;100.00;97857.72;6299833;28;20781;-45
2023/12/08 02:51:38;;;;;;;12.97;7.40;;;;;;;-5.92;100.00;97864.69;6301765;28;20201;-48
2023/12/08 02:54:40;;;;;;;12.43;8.07;;;;;;;-5.85;100.00;97858.00;6304664;28;20271;-47
2023/12/08 02:57:42;;;;;;;13.20;7.93;;;;;;;-5.79;100.00;97863.44;6304711;28;20198;-47
2023/12/08 03:00:44;;;;;;;12.17;7.40;;;;;;;-5.78;100.00;97856.47;6304947;28;20213;-49
2023/12/08 03:03:47;;;;;;;12.43;8.27;;;;;;;-5.86;100.00;97840.75;6298455;28;20190;-46
2023/12/08 03:06:49;;;;;;;13.63;8.30;;;;;;;-5.64;100.00;97848.31;6304595;28;20563;-44
2023/12/08 03:09:51;;;;;;;12.37;6.80;;;;;;;-5.91;100.00;97851.56;6305239;28;20179;-47
2023/12/08 03:12:53;;;;;;;12.70;7.77;;;;;;;-5.95;100.00;97844.22;6300119;28;20202;-48
2023/12/08 03:15:55;;;;;;;11.23;6.80;;;;;;;-5.82;100.00;97840.34;6296950;28;20565;-46
2023/12/08 03:18:57;;;;;;;12.30;7.30;;;;;;;-5.97;100.00;97845.16;6306304;28;20206;-48
2023/12/08 03:21:59;;;;;;;11.97;7.53;;;;;;;-5.89;100.00;97838.47;6298054;28;20198;-51
2023/12/08 03:25:01;;;;;;;12.57;7.77;;;;;;;-5.80;100.00;97833.28;6298350;28;20190;-48
2023/12/08 03:28:03;;;;;;;10.40;6.70;;;;;;;-5.83;100.00;97830.94;6299440;28;20194;-49
2023/12/08 03:31:05;;;;;;;9.13;5.83;;;;;;;-5.84;100.00;97834.50;6298347;28;20655;-51
2023/12/08 03:34:07;;;;;;;13.03;7.97;;;;;;;-5.83;100.00;97835.31;6302462;28;20720;-46
2023/12/08 03:37:10;;;;;;;11.60;6.93;;;;;;;-5.77;100.00;97830.41;6297852;28;20248;-47
2023/12/08 03:40:12;;;;;;;10.27;7.17;;;;;;;-5.84;100.00;97829.31;6300464;28;20206;-48
2023/12/08 03:43:15;;;;;;;9.07;6.33;;;;;;;-5.80;100.00;97829.88;6294993;28;20203;-48
2023/12/08 03:46:17;;;;;;;11.40;6.63;;;;;;;-5.77;100.00;97829.56;6299667;28;20198;-48
2023/12/08 03:49:20;;;;;;;13.17;6.27;;;;;;;-5.82;100.00;97822.19;6301974;28;20197;-47
2023/12/08 03:52:22;;;;;;;12.33;6.63;;;;;;;-5.90;100.00;97818.66;6298495;28;20208;-47
2023/12/08 03:55:24;;;;;;;10.20;6.37;;;;;;;-5.84;100.00;97816.34;6308837;28;20254;-48
2023/12/08 03:58:27;;;;;;;11.17;6.60;;;;;;;-5.90;100.00;97803.91;6312268;28;20922;-49
2023/12/08 04:01:29;;;;;;;11.53;6.57;;;;;;;-5.90;100.00;97810.88;6300972;28;20209;-49
2023/12/08 04:04:32;;;;;;;12.97;7.37;;;;;;;-5.84;100.00;97802.56;6299058;28;20190;-44
2023/12/08 04:07:34;;;;;;;11.30;6.87;;;;;;;-5.76;100.00;97797.50;6298843;28;20205;-46
2023/12/08 04:10:37;;;;;;;11.10;7.17;;;;;;;-5.76;100.00;97792.31;6299298;28;20227;-51
2023/12/08 04:13:39;;;;;;;10.80;7.13;;;;;;;-5.75;100.00;97796.56;6307239;28;20209;-49
2023/12/08 04:16:41;;;;;;;13.53;7.93;;;;;;;-5.67;100.00;97799.25;6304904;28;20209;-48
2023/12/08 04:19:44;;;;;;;13.10;8.40;;;;;;;-5.59;100.00;97798.59;6306627;28;20220;-46
2023/12/08 04:22:46;;;;;;;11.90;7.97;;;;;;;-5.51;100.00;97804.75;6304000;28;21089;-50
2023/12/08 04:25:48;;;;;;;13.87;8.07;;;;;;;-5.36;100.00;97793.94;6289622;28;20210;-49
2023/12/08 04:28:52;;;;;;;14.93;8.13;;;;;;;-5.36;100.00;97783.56;6295434;28;20279;-47
2023/12/08 04:31:55;;;;;;;14.30;8.00;;;;;;;-5.51;100.00;97746.81;6299466;28;20234;-47
2023/12/08 04:34:57;;;;;;;12.77;8.70;;;;;;;-5.36;100.00;97776.59;6294214;28;20456;-50
2023/12/08 04:37:59;;;;;;;12.00;7.83;;;;;;;-5.43;100.00;97785.88;6308601;28;20835;-47
2023/12/08 04:41:01;;;;;;;14.90;8.77;;;;;;;-5.43;100.00;97780.69;6297001;28;20206;-49
2023/12/08 04:44:03;;;;;;;14.67;9.03;;;;;;;-5.36;100.00;97773.16;6300296;28;20667;-48
2023/12/08 04:47:05;;;;;;;14.07;9.00;;;;;;;-5.33;100.00;97784.06;6298015;28;20277;-47
2023/12/08 04:50:11;;;;;;;15.67;9.63;;;;;;;-5.23;100.00;97768.47;6293335;28;20206;-50
2023/12/08 04:53:16;;;;;;;15.63;9.87;;;;;;;-5.19;100.00;97756.84;6281412;28;20189;-48
2023/12/08 04:56:18;;;;;;;17.03;9.60;;;;;;;-5.14;100.00;97738.25;6304570;28;20802;-48
2023/12/08 04:59:20;;;;;;;15.70;9.50;;;;;;;-5.21;100.00;97732.81;6307560;28;20209;-47
2023/12/08 05:02:22;;;;;;;14.43;9.67;;;;;;;-5.17;100.00;97731.59;6308274;28;20206;-48
2023/12/08 05:05:25;;;;;;;17.60;10.27;;;;;;;-5.15;100.00;97708.88;6307402;28;20193;-46
2023/12/08 05:08:29;;;;;;;14.03;8.90;;;;;;;-5.11;100.00;97697.25;6307856;28;20325;-49
2023/12/08 05:11:31;;;;;;;17.07;9.83;;;;;;;-5.07;100.00;97702.97;6308571;28;20202;-49
2023/12/08 05:14:33;;;;;;;14.67;9.17;;;;;;;-5.04;100.00;97706.09;6304854;28;20194;-47
2023/12/08 05:17:35;;;;;;;16.03;9.63;;;;;;;-5.16;100.00;97676.09;6311344;28;20195;-47
2023/12/08 05:20:37;;;;;;;14.60;9.53;;;;;;;-5.06;100.00;97728.00;6305189;28;20197;-52
2023/12/08 05:23:39;;;;;;;15.63;10.20;;;;;;;-5.36;100.00;97709.09;6300824;28;20286;-47
2023/12/08 05:26:41;;;;;;;14.03;8.90;;;;;;;-5.08;100.00;97750.66;6305310;28;20218;-45
2023/12/08 05:29:43;;;;;;;15.73;9.77;;;;;;;-5.01;100.00;97731.78;6303045;28;20706;-46
2023/12/08 05:32:45;;;;;;;15.97;9.53;;;;;;;-5.01;100.00;97739.59;6301062;28;20308;-47
2023/12/08 05:35:48;;;;;;;15.47;9.50;;;;;;;-4.98;100.00;97730.66;6303846;28;20197;-51
2023/12/08 05:38:50;;;;;;;13.50;8.93;;;;;;;-4.97;100.00;97727.13;6302265;28;20198;-51
2023/12/08 05:41:52;;;;;;;15.10;9.77;;;;;;;-5.05;100.00;97719.22;6298301;28;20706;-52
2023/12/08 05:44:54;;;;;;;13.93;8.80;;;;;;;-5.30;100.00;97681.75;6303161;28;20205;-49
2023/12/08 05:47:56;;;;;;;18.23;10.70;;;;;;;-4.99;100.00;97708.25;6302725;28;20201;-47
2023/12/08 05:50:59;;;;;;;17.13;10.03;;;;;;;-5.23;100.00;97667.22;6298284;28;20191;-50
2023/12/08 05:54:02;;;;;;;18.30;11.50;;;;;;;-5.06;100.00;97723.59;6301889;28;20243;-49
2023/12/08 05:57:06;;;;;;;15.33;9.53;;;;;;;-5.08;100.00;97709.94;6298185;28;20194;-48
2023/12/08 06:00:11;;;;;;;16.03;9.37;;;;;;;-5.08;100.00;97709.13;6297790;28;20214;-49
2023/12/08 06:03:14;;;;;;;14.70;9.43;;;;;;;-5.15;100.00;97714.06;6304553;28;20349;-48
2023/12/08 06:06:16;;;;;;;13.00;7.93;;;;;;;-5.18;100.00;97717.75;6300468;28;20568;-44
2023/12/08 06:09:18;;;;;;;12.93;9.17;;;;;;;-5.12;100.00;97724.19;6304960;28;20194;-45
2023/12/08 06:12:20;;;;;;;15.13;10.00;;;;;;;-5.12;100.00;97720.75;6302067;28;20335;-47
2023/12/08 06:15:23;;;;;;;15.07;9.90;;;;;;;-5.07;100.00;97716.78;6306693;28;20191;-48
2023/12/08 06:18:25;;;;;;;16.20;9.93;;;;;;;-4.88;100.00;97717.66;6307339;28;20209;-45
2023/12/08 06:21:28;;;;;;;15.83;9.37;;;;;;;-4.89;100.00;97716.81;6307520;28;20206;-48
2023/12/08 06:24:30;;;;;;;12.13;8.07;;;;;;;-4.99;100.00;97713.47;6308304;28;20198;-48
2023/12/08 06:27:33;;;;;;;14.40;9.37;;;;;;;-4.96;100.00;97721.78;6312854;28;20220;-47
2023/12/08 06:30:35;;;;;;;16.10;9.33;;;;;;;-4.98;100.00;97728.06;6304023;28;20259;-46
2023/12/08 06:33:37;;;;;;;11.27;8.30;;;;;;;-5.02;100.00;97717.16;6299154;28;20652;-46
2023/12/08 06:36:48;;;;;;;14.67;8.40;;;;;;;-5.01;100.00;97710.19;6300261;28;20209;-46
2023/12/08 06:39:50;;;;;;;13.33;8.47;;;;;;;-5.09;100.00;97710.91;6298176;28;20190;-45
2023/12/08 06:42:52;;;;;;;14.03;8.50;;;;;;;-5.10;100.00;97724.03;6299312;28;20187;-46
2023/12/08 06:45:54;;;;;;;13.27;8.30;;;;;;;-4.92;100.00;97711.94;6305061;28;20183;-48
2023/12/08 06:48:56;;;;;;;15.73;9.73;;;;;;;-4.95;100.00;97712.22;6304546;28;20195;-46
2023/12/08 06:51:58;;;;;;;13.47;9.20;;;;;;;-4.87;100.00;97720.13;6303756;28;20191;-47
2023/12/08 06:55:01;;;;;;;13.30;9.10;;;;;;;-4.83;100.00;97710.22;6304937;28;20194;-49
2023/12/08 06:58:03;;;;;;;17.87;9.43;;;;;;;-4.76;100.00;97711.31;6292193;28;20666;-48
2023/12/08 07:01:06;;;;;;;16.03;9.83;;;;;;;-4.78;100.00;97702.81;6305917;28;20205;-48
2023/12/08 07:04:08;;;;;;;12.83;8.47;;;;;;;-4.74;100.00;97710.19;6306654;28;20186;-48
2023/12/08 07:07:11;;;;;;;16.47;10.43;;;;;;;-4.75;100.00;97707.75;6304541;28;20197;-51
2023/12/08 07:10:14;;;;;;;13.87;9.33;;;;;;;-4.72;100.00;97707.47;6294024;28;20183;-48
2023/12/08 07:13:16;;;;;;;13.47;8.90;;;;;;;-4.75;100.00;97713.75;6302094;28;20651;-50
2023/12/08 07:16:18;;;;;;;17.17;10.20;;;;;;;-4.74;100.00;97711.97;6305286;28;20647;-47
2023/12/08 07:19:21;;;;;;;17.57;10.97;;;;;;;-4.70;100.00;97705.53;6296961;28;20204;-48
2023/12/08 07:22:23;;;;;;;16.23;10.87;;;;;;;-4.73;100.00;97695.41;6299449;28;20210;-46
2023/12/08 07:25:25;;;;;;;16.67;10.47;;;;;;;-4.87;100.00;97677.72;6302153;28;20179;-48
2023/12/08 07:28:27;;;;;;;13.83;10.37;;;;;;;-4.65;100.00;97702.50;6299829;28;20213;-48
2023/12/08 07:31:29;;;;;;;16.20;10.87;;;;;;;-4.62;100.00;97692.63;6301588;28;20240;-46
2023/12/08 07:34:31;;;;;;;19.37;10.83;;;;;;;-4.59;100.00;97701.91;6290482;28;20200;-48
2023/12/08 07:37:33;;;;;;;16.00;10.63;;;;;;;-4.63;100.00;97688.41;6299769;28;20194;-47
2023/12/08 07:40:35;;;;;;;15.67;10.23;;;;;;;-4.53;100.00;97696.97;6301228;28;20218;-49
2023/12/08 07:43:38;;;;;;;14.00;9.70;;;;;;;-4.48;100.00;97689.53;6303340;28;20197;-48
2023/12/08 07:46:40;;;;;;;17.50;10.93;;;;;;;-4.43;100.00;97697.72;6305146;28;20198;-50
2023/12/08 07:49:42;;;;;;;15.37;10.43;;;;;;;-4.41;100.00;97693.16;6309257;28;20269;-48
2023/12/08 07:52:44;;;;;;;14.23;9.90;;;;;;;-4.33;100.00;97697.66;6301717;28;20195;-48
2023/12/08 07:55:47;;;;;;;13.07;9.87;;;;;;;-4.26;100.00;97688.28;6298950;28;20268;-49
2023/12/08 07:58:49;;;;;;;13.13;9.23;;;;;;;-4.31;100.00;97690.50;6282384;28;20214;-51
2023/12/08 08:01:51;;;;;;;14.07;9.97;;;;;;;-4.29;100.00;97649.56;6284636;28;20195;-49
2023/12/08 08:04:53;;;;;;;13.77;8.50;;;;;;;-4.11;100.00;97683.38;6306087;28;20190;-52
2023/12/08 08:07:56;;;;;;;14.03;9.07;;;;;;;-3.95;100.00;97680.09;6306032;28;20560;-48
2023/12/08 08:10:58;;;;;;;14.37;9.90;;;;;;;-3.88;100.00;97672.50;6300879;28;20194;-50
2023/12/08 08:14:00;;;;;;;14.20;9.47;;;;;;;-3.77;100.00;97670.47;6309248;28;20308;-48
2023/12/08 08:17:02;;;;;;;13.63;9.33;;;;;;;-3.70;100.00;97668.06;6303344;28;20193;-51
2023/12/08 08:20:06;;;;;;;13.93;9.00;;;;;;;-3.64;100.00;97670.91;6291153;28;20313;-48
2023/12/08 08:23:08;;;;;;;12.90;9.13;;;;;;;-3.82;100.00;97619.84;6296055;28;20285;-47
2023/12/08 08:26:10;;;;;;;16.80;8.77;;;;;;;-3.46;100.00;97664.81;6287836;28;20343;-49
2023/12/08 08:29:12;;;;;;;14.10;9.43;;;;;;;-3.37;100.00;97667.31;6298968;28;20557;-49
2023/12/08 08:32:17;;;;;;;14.53;8.47;;;;;;;-3.22;100.00;97661.53;6303476;28;20589;-53
2023/12/08 08:35:20;;;;;;;17.07;9.77;;;;;;;-3.09;100.00;97674.16;6298143;28;20558;-49
2023/12/08 08:38:22;;;;;;;12.90;9.37;;;;;;;-2.89;100.00;97668.53;6299245;28;20554;-47
2023/12/08 08:41:24;;;;;;;14.97;9.97;;;;;;;-2.61;100.00;97676.94;6299377;28;20201;-47
2023/12/08 08:44:27;;;;;;;16.30;10.37;;;;;;;-2.53;100.00;97675.31;6308746;28;20201;-47
2023/12/08 08:47:30;;;;;;;15.27;10.53;;;;;;;-2.34;100.00;97678.47;6299004;28;20190;-49
2023/12/08 08:50:32;;;;;;;16.03;10.47;;;;;;;-2.06;100.00;97674.75;6296233;28;20193;-47
2023/12/08 08:53:51;;;;;;;15.23;10.00;;;;;;;-2.05;100.00;97676.38;6303935;28;20202;-49
2023/12/08 08:56:53;;;;;;;14.10;9.63;;;;;;;-1.96;100.00;97671.00;6296129;28;20191;-48
2023/12/08 08:59:55;;;;;;;14.90;10.07;;;;;;;-1.83;100.00;97660.88;6290398;28;20574;-47
2023/12/08 09:03:01;;;;;;;17.03;11.07;;;;;;;-1.64;100.00;97651.06;6309096;28;20327;-47
2023/12/08 09:06:04;;;;;;;15.27;11.03;;;;;;;-1.70;100.00;97604.72;6304154;28;20681;-50
2023/12/08 09:09:07;;;;;;;18.13;11.53;;;;;;;-1.26;100.00;97639.06;6288534;28;20662;-46
2023/12/08 09:12:09;;;;;;;16.23;11.67;;;;;;;-1.23;100.00;97630.91;6306304;28;20897;-47
2023/12/08 09:15:13;;;;;;;16.70;11.40;;;;;;;-1.10;100.00;97619.91;6298757;28;20382;-46
2023/12/08 09:18:15;;;;;;;15.17;11.07;;;;;;;-1.13;100.00;97610.63;6295055;28;20795;-49
2023/12/08 09:21:18;;;;;;;17.67;12.50;;;;;;;-1.01;100.00;97623.31;6283799;28;20266;-48
2023/12/08 09:24:21;;;;;;;16.27;10.90;;;;;;;-1.20;100.00;97587.94;6271831;28;20240;-48
2023/12/08 09:27:23;;;;;;;20.60;12.57;;;;;;;-0.91;100.00;97608.22;6304881;28;20791;-48
2023/12/08 09:30:27;;;;;;;16.03;11.17;;;;;;;-0.86;100.00;97613.75;6305916;28;20249;-46
2023/12/08 09:33:29;;;;;;;19.47;13.07;;;;;;;-0.80;100.00;97615.69;6295911;28;20276;-49
2023/12/08 09:36:33;;;;;;;17.60;12.10;;;;;;;-1.14;100.00;97548.03;6297379;28;20194;-48
2023/12/08 09:39:35;;;;;;;19.03;12.73;;;;;;;-0.47;100.00;97612.88;6289159;28;20199;-50
2023/12/08 09:42:45;;;;;;;17.13;11.63;;;;;;;-0.59;100.00;97608.06;6306375;28;20205;-49
2023/12/08 09:45:48;;;;;;;19.93;13.57;;;;;;;-0.63;100.00;97605.97;6306291;28;20198;-45
2023/12/08 09:48:51;;;;;;;18.67;12.20;;;;;;;-0.66;100.00;97580.94;6310100;28;20190;-45
2023/12/08 09:51:55;;;;;;;17.10;11.43;;;;;;;-0.54;100.00;97597.06;6294495;28;20768;-48
2023/12/08 09:54:57;;;;;;;21.73;13.90;;;;;;;-0.37;100.00;97587.31;6306042;28;20657;-47
2023/12/08 09:58:01;;;;;;;17.10;11.77;;;;;;;-0.42;100.00;97594.88;6300439;28;20186;-49
2023/12/08 10:01:05;;;;;;;17.70;11.80;;;;;;;-0.44;100.00;97579.34;6307377;28;20656;-49
2023/12/08 10:04:07;;;;;;;15.40;11.33;;;;;;;-0.59;100.00;97547.88;6293891;28;20718;-53
2023/12/08 10:07:11;;;;;;;20.53;14.50;;;;;;;-0.39;100.00;97558.69;6308891;28;20615;-51
2023/12/08 10:10:13;;;;;;;20.20;12.77;;;;;;;-0.15;100.00;97552.44;6308486;28;20232;-53
2023/12/08 10:13:15;;;;;;;16.50;12.47;;;;;;;-0.26;100.00;97524.88;6293115;28;20299;-48
2023/12/08 10:16:18;;;;;;;17.90;12.30;;;;;;;-0.12;100.00;97543.41;6284409;28;20455;-51
2023/12/08 10:19:21;;;;;;;17.30;12.60;;;;;;;-0.14;100.00;97554.06;6298862;28;20197;-53
2023/12/08 10:22:23;;;;;;;12.97;10.83;;;;;;;-0.27;100.00;97553.84;6301654;28;20195;-49
2023/12/08 10:25:29;;;;;;;14.00;10.57;;;;;;;-0.31;100.00;97563.03;6307976;28;20202;-47
2023/12/08 10:28:35;;;;;;;19.97;13.33;;;;;;;-0.03;100.00;97547.59;6294235;28;20661;-49
2023/12/08 10:31:41;;;;;;;19.53;13.83;;;;;;;-0.03;100.00;97552.84;6309310;28;20588;-52
2023/12/08 10:34:43;;;;;;;17.17;11.70;;;;;;;0.10;100.00;97555.66;6304775;28;20199;-54
2023/12/08 10:37:46;;;;;;;17.33;12.33;;;;;;;0.30;100.00;97539.44;6313339;28;20362;-53
2023/12/08 10:40:50;;;;;;;16.27;12.57;;;;;;;0.56;100.00;97541.59;6309409;28;20939;-52
2023/12/08 10:43:52;;;;;;;20.57;13.37;;;;;;;0.55;99.98;97529.47;6302827;28;20198;-48
2023/12/08 10:46:56;;;;;;;18.00;12.93;;;;;;;0.67;99.58;97539.31;6301166;28;20281;-52
2023/12/08 10:49:59;;;;;;;17.73;13.13;;;;;;;0.67;98.29;97513.09;6298928;28;20567;-51
2023/12/08 10:53:03;;;;;;;19.67;12.73;;;;;;;0.67;99.72;97528.81;6305608;28;20668;-54
2023/12/08 10:56:09;;;;;;;15.83;12.37;;;;;;;0.59;100.00;97523.69;6305310;28;20205;-53
2023/12/08 10:59:18;;;;;;;18.00;12.60;;;;;;;0.67;100.00;97526.19;6293867;28;20201;-53
2023/12/08 11:02:30;;;;;;;19.33;12.63;;;;;;;0.70;99.20;97525.03;6269393;28;20217;-52
2023/12/08 11:05:39;;;;;;;18.23;12.13;;;;;;;0.61;100.00;97513.03;6298294;28;20194;-51
2023/12/08 11:08:45;;;;;;;18.10;13.17;;;;;;;0.56;100.00;97518.81;6300571;28;20678;-51
2023/12/08 11:11:58;;;;;;;16.73;12.30;;;;;;;0.95;98.69;97512.41;6305031;28;20186;-47
2023/12/08 11:15:09;;;;;;;18.63;13.10;;;;;;;1.00;97.17;97510.88;6292763;28;21301;-53
2023/12/08 11:18:38;;;;;;;17.60;13.17;;;;;;;0.96;98.18;97517.47;6292435;28;20240;-53
2023/12/08 11:21:41;;;;;;;18.77;12.83;;;;;;;1.06;97.46;97517.19;6301366;28;21765;-51
2023/12/08 11:24:44;;;;;;;17.73;13.13;;;;;;;1.05;97.64;97515.56;6302794;28;20266;-51
2023/12/08 11:28:11;;;;;;;77.63;50.13;;;;;;;1.15;96.05;97512.63;6301904;28;20225;-51
2023/12/08 11:31:39;;;;;;;17.23;12.67;;;;;;;1.07;95.22;97513.53;6305750;28;20225;-53
2023/12/08 11:34:55;;;;;;;18.90;13.53;;;;;;;1.03;96.36;97513.13;6295148;28;20752;-51
2023/12/08 11:37:57;;;;;;;16.47;11.83;;;;;;;1.05;96.83;97512.94;6295994;28;20767;-52
2023/12/08 11:40:59;;;;;;;18.97;12.63;;;;;;;0.95;98.14;97521.09;6305083;28;20286;-51
2023/12/08 11:44:07;;;;;;;20.70;14.73;;;;;;;0.96;97.60;97514.03;6305534;28;20191;-51
2023/12/08 11:47:12;;;;;;;17.53;13.50;;;;;;;0.97;97.54;97499.94;6303692;28;20183;-53
2023/12/08 11:50:14;;;;;;;18.27;13.57;;;;;;;1.09;98.61;97500.28;6302144;28;20187;-51
2023/12/08 11:53:17;;;;;;;18.80;13.80;;;;;;;1.13;97.01;97504.94;6307643;28;20214;-50
2023/12/08 11:56:45;;;;;;;18.50;13.23;;;;;;;1.13;96.90;97510.19;6297224;28;20206;-48
2023/12/08 11:59:49;;;;;;;19.77;13.20;;;;;;;1.11;97.27;97501.69;6291940;28;20196;-46
2023/12/08 12:02:53;;;;;;;18.03;13.77;;;;;;;1.28;95.15;97495.22;6306662;28;20214;-54
2023/12/08 12:05:56;;;;;;;18.87;12.57;;;;;;;1.17;95.94;97484.38;6295690;28;20201;-50
2023/12/08 12:08:59;;;;;;;17.30;13.03;;;;;;;1.17;97.02;97481.75;6290547;28;20771;-54
2023/12/08 12:12:12;;;;;;;18.67;13.07;;;;;;;1.17;94.89;97481.75;6304063;28;20241;-53
2023/12/08 12:15:17;;;;;;;21.03;13.17;;;;;;;1.41;94.71;97484.00;6299562;28;20194;-53
2023/12/08 12:18:20;;;;;;;21.13;13.37;;;;;;;1.39;93.17;97477.34;6301463;28;20801;-48
2023/12/08 12:21:22;;;;;;;20.23;13.97;;;;;;;1.20;95.15;97486.66;6301598;28;20979;-49
2023/12/08 12:24:25;;;;;;;19.77;13.87;;;;;;;1.31;93.76;97485.34;6303727;28;20201;-47
2023/12/08 12:27:27;;;;;;;19.20;14.00;;;;;;;1.01;95.33;97494.13;6288338;28;20579;-53
2023/12/08 12:30:31;;;;;;;18.10;12.67;;;;;;;0.98;96.35;97494.47;6303712;28;20341;-52
2023/12/08 12:33:36;;;;;;;19.77;13.93;;;;;;;0.98;96.02;97485.81;6303573;28;20877;-51
2023/12/08 12:36:39;;;;;;;19.80;13.07;;;;;;;1.08;94.83;97493.38;6302761;28;20742;-51
2023/12/08 12:39:41;;;;;;;20.63;13.23;;;;;;;0.99;95.10;97484.84;6285946;28;20193;-52
2023/12/08 12:42:48;;;;;;;18.03;12.97;;;;;;;0.89;96.56;97476.44;6300982;28;20688;-50
2023/12/08 12:45:51;;;;;;;18.53;13.77;;;;;;;0.82;97.74;97468.50;6303170;28;20206;-49
2023/12/08 12:48:56;;;;;;;24.17;17.23;;;;;;;0.67;97.04;97458.03;6302314;28;20198;-54
2023/12/08 12:51:59;;;;;;;57.27;35.17;;;;;;;0.82;97.68;97470.31;6304965;28;20576;-54
2023/12/08 12:55:02;;;;;;;63.53;40.80;;;;;;;0.75;98.09;97471.06;6298644;28;20255;-49
2023/12/08 12:58:05;;;;;;;29.33;20.77;;;;;;;0.83;97.46;97453.56;6305085;28;20577;-48
2023/12/08 13:01:11;;;;;;;20.80;14.70;;;;;;;0.81;96.74;97443.28;6291559;28;20199;-51
2023/12/08 13:04:15;;;;;;;21.07;15.13;;;;;;;0.68;97.77;97448.38;6302978;28;20190;-52
2023/12/08 13:07:18;;;;;;;18.10;13.60;;;;;;;0.63;98.56;97462.03;6305782;28;20658;-45
2023/12/08 13:10:20;;;;;;;19.90;14.40;;;;;;;0.65;98.44;97459.25;6306775;28;20267;-48
2023/12/08 13:13:22;;;;;;;18.27;13.73;;;;;;;0.57;98.96;97457.53;6287266;28;20211;-48
2023/12/08 13:16:24;;;;;;;20.87;15.10;;;;;;;0.51;99.63;97471.38;6305843;28;20209;-49
2023/12/08 13:19:26;;;;;;;23.20;15.50;;;;;;;0.55;99.80;97466.59;6313469;28;20571;-47
2023/12/08 13:22:29;;;;;;;21.03;15.80;;;;;;;0.50;99.21;97475.00;6308662;28;20287;-53
2023/12/08 13:25:31;;;;;;;21.33;16.07;;;;;;;0.40;100.00;97474.47;6306640;28;20631;-46
2023/12/08 13:28:33;;;;;;;23.27;16.23;;;;;;;0.09;100.00;97453.69;6305871;28;20238;-49
2023/12/08 13:31:35;;;;;;;22.50;15.63;;;;;;;0.21;100.00;97488.91;6307247;28;20290;-53
2023/12/08 13:34:37;;;;;;;23.17;16.87;;;;;;;0.40;100.00;97491.00;6307196;28;20285;-49
2023/12/08 13:37:40;;;;;;;25.50;16.97;;;;;;;0.24;100.00;97497.22;6302285;28;20286;-50
2023/12/08 13:40:42;;;;;;;22.47;16.17;;;;;;;0.18;100.00;97500.56;6308957;28;20409;-48
2023/12/08 13:43:44;;;;;;;23.03;15.67;;;;;;;0.18;100.00;97500.56;6309526;28;21129;-54
2023/12/08 13:46:47;;;;;;;22.53;16.03;;;;;;;0.21;100.00;97508.06;6310093;28;20277;-53
2023/12/08 13:49:51;;;;;;;23.00;16.50;;;;;;;0.22;100.00;97504.44;6306283;28;20194;-53
2023/12/08 13:52:53;;;;;;;22.83;16.37;;;;;;;0.19;100.00;97502.19;6285799;28;20590;-53
2023/12/08 13:55:55;;;;;;;22.60;15.60;;;;;;;0.23;100.00;97513.13;6298523;28;20193;-55
2023/12/08 13:58:57;;;;;;;23.47;16.07;;;;;;;0.17;100.00;97509.41;6304523;28;20201;-54
2023/12/08 14:01:59;;;;;;;23.70;17.50;;;;;;;0.14;100.00;97524.66;6287344;28;20302;-54